Croston, United Kingdom
Current Conditions -  °F | °C
As of 6:20 PM on Thursday 18 Dec 2014 (Local Time) from EGNO Reporting Station
Moderate Rain Moderate Rain  
Wind Chill: 52°   Ceiling: 1800
Heat Index: 52°   Visibility: 4mi
Dew Point: 52°   Wind: 23mph
Humidity: 100%   Direction: 250°WSW
Pressure: 29.59"   Gusts: NA
Location:  53.66°N, 2.78°W
Report Text: EGNO 181820Z 25020KT 7000 RA SCT007 BKN018 11/11 Q1002
Loading
Personal Weather Stations






























Interactive Weather Map New forecast layout! Learn more

10-Day Weather Forecast

Advertisements
Track Severe Weather on mobile